• Join FlightAware (Why Join?)
  • Login
  • US Flag 
01:26PM EDT


 

Airport Tracker/Info


-or-


 

Live Flight TrackerFlight Track Log ✈ EJA941 ✈ 04-Oct-2013 ✈ KCPS - KLUK

Flight Track Log - Related Links

Times and Time Zones

All times are in EDT time to prevent confusion due to time zone crossing. See the EJA941 flight status page for this flight to view local times or setup timezone preferences in your user account.

Time Position Orientation Groundspeed Altitude Reporting Facility
EDT Latitude Longitude Course Direction KTS MPH feet Rate Location/Type
05:01PM 38.5667 -90.0833 104° East 220 253 2,500  Level Gateway (St. Louis) TRACON
05:02PM 38.5636 -89.9986 93° East 231 266 4,600 2,160 Climbing Kansas City Center
05:03PM 38.5703 -89.8978 85° East 264 304 7,300 2,760 Climbing Kansas City Center
05:04PM 38.5725 -89.7869 88° East 296 341 10,400 2,700 Climbing Kansas City Center
05:05PM 38.5400 -89.6497 107° East 334 384 12,900 2,160 Climbing Kansas City Center
05:06PM 38.6508 -89.4560 104° East  Level Estimated
05:06PM 38.5094 -89.5253 107° East 363 418 14,900  Level Kansas City Center
05:07PM 38.4761 -89.3886 107° East 373 429 17,100 1,980 Climbing Kansas City Center
05:08PM 38.4439 -89.2589 108° East 382 440 19,100 1,920 Climbing Kansas City Center
05:09PM 38.4097 -89.1272 108° East 390 449 21,100 1,980 Climbing Kansas City Center
05:10PM 38.3672 -88.9864 111° Southeast 395 455 23,200 1,620 Climbing Kansas City Center
05:11PM 38.3250 -88.8419 110° East 419 482 24,400 1,080 Climbing Kansas City Center
05:12PM 38.2822 -88.6903 110° East 439 505 25,500 1,020 Climbing Kansas City Center
05:13PM 38.2542 -88.5214 102° East 477 549 26,600 1,080 Climbing Kansas City Center
05:14PM 38.2756 -88.3472 81° East 494 568 27,800 1,080 Climbing Kansas City Center
05:15PM 38.2994 -88.1675 80° East 509 586 28,900 1,200 Climbing Kansas City Center
05:16PM 38.3181 -88.0244 81° East 515 593 30,100 1,560 Climbing Indianapolis Center
05:17PM 38.3458 -87.8061 81° East 517 595 31,900 1,380 Climbing Indianapolis Center
05:18PM 38.3678 -87.6211 81° East 525 604 33,000 480 Climbing Indianapolis Center
05:19PM 38.3917 -87.4272 81° East 545 627 33,000  Level Indianapolis Center
05:20PM 38.4161 -87.2258 81° East 564 649 33,000 -720 Level Indianapolis Center
05:21PM 38.4364 -87.0181 83° East 564 649 31,600 -1,860 Descending Indianapolis Center
05:22PM 38.4269 -86.8217 93° East 545 627 29,200 -2,400 Descending Indianapolis Center
05:23PM 38.4306 -86.6247 89° East 553 636 26,700 -2,460 Descending Indianapolis Center
05:24PM 38.4594 -86.4375 79° East 540 621 24,100 -2,520 Descending Indianapolis Center
05:25PM 38.4903 -86.2583 78° East 522 601 21,500 -2,220 Descending Indianapolis Center
05:26PM 38.5286 -86.0931 73° East 487 560 19,600 -2,040 Descending Indianapolis Center
05:27PM 38.5722 -85.9000 74° East 473 544 17,400 -2,040 Descending Indianapolis Center
05:28PM 38.6050 -85.7500 74° East 442 509 15,400 -1,860 Descending Indianapolis Center
05:29PM 38.6364 -85.6119 74° East 446 513 13,600 -1,680 Descending Indianapolis Center
05:30PM 38.6792 -85.4406 72° East 429 494 12,000 -1,020 Descending Indianapolis Center
05:31PM 38.7358 -85.3200 59° Northeast 404 465 11,600 -780 Descending Indianapolis Center
05:33PM 38.7958 -85.1983 58° Northeast 405 466 10,500 -780 Descending Indianapolis Center
05:34PM 38.8592 -85.0731 57° Northeast 417 480 10,000 -300 Descending Indianapolis Center
05:35PM 38.9181 -84.9525 58° Northeast 406 467 10,000 -240 Level Indianapolis Center
05:36PM 38.9717 -84.8456 57° Northeast 348 400 9,600 -1,260 Descending Indianapolis Center
05:37PM 39.0281 -84.7431 55° Northeast 295 339 7,500 -1,980 Descending Indianapolis Center
05:38PM 39.1000 -84.6833 33° Northeast 284 327 5,600 -1,860 Descending Cincinnati TRACON
05:38PM 39.1333 -84.6333 49° Northeast 283 326 4,500 -1,020 Descending Cincinnati TRACON
05:39PM 39.1833 -84.5500 52° Northeast 248 285 3,800 -900 Descending Cincinnati TRACON
05:40PM 39.2000 -84.4667 76° East 243 280 2,600 -900 Descending Cincinnati TRACON
05:42PM 39.1667 -84.3833 117° Southeast 160 184 1,900 -720 Descending Cincinnati TRACON
05:43PM 39.1333 -84.4000 201° Southwest 127 146 1,000 -840 Descending Cincinnati TRACON
05:45PM 39.1000 -84.4167 137° Southeast  Level FlightAware Approximate
05:52PM 39.1033 -84.4186 137° Southeast  Level Estimated
05:53PM 39.1000 -84.4167 137° Southeast  Level FlightAware Approximate
05:54PM 39.1033 -84.4186 137° Southeast  Level Estimated
05:55PM 39.1000 -84.4167 137° Southeast  Level FlightAware Approximate
05:56PM 39.1033 -84.4186 137° Southeast  Level Estimated
05:57PM 39.1000 -84.4167 137° Southeast  Level FlightAware Approximate
05:58PM 39.1033 -84.4186 137° Southeast  Level Estimated